CDT,Max TemperatureF,Mean TemperatureF,Min TemperatureF,Max Dew PointF,MeanDew PointF,Min DewpointF,Max Humidity, Mean Humidity, Min Humidity, Max Sea Level PressureIn, Mean Sea Level PressureIn, Min Sea Level PressureIn, Max VisibilityMiles, Mean VisibilityMiles, Min VisibilityMiles, Max Wind SpeedMPH, Mean Wind SpeedMPH, Max Gust SpeedMPH,PrecipitationIn, CloudCover, Events, WindDirDegrees
2013-7-1,85,69,53,57,52,48,93,61,29,30.20,30.16,30.12,10,9,7,16,5,21,0.00,1,,356
2013-7-2,84,70,56,64,57,54,93,66,39,30.16,30.11,30.06,10,9,6,22,4,25,0.08,3,Rain-Thunderstorm,12
2013-7-3,85,69,53,62,58,54,100,67,34,30.06,30.01,29.93,10,9,6,9,3,18,0.00,0,,191
2013-7-4,88,73,57,60,57,55,93,64,34,29.96,29.90,29.83,10,10,7,25,12,31,0.00,0,,156
2013-7-5,88,77,65,66,61,56,73,60,46,29.87,29.83,29.79,10,10,10,22,12,29,0.00,1,,160
2013-7-6,90,81,71,67,64,61,73,60,47,29.82,29.79,29.75,10,10,10,22,12,29,0.00,0,,160
2013-7-7,89,78,67,72,67,63,87,67,46,29.93,29.83,29.80,10,10,9,37,6,44,T,0,Rain-Thunderstorm,165
2013-7-8,84,78,67,74,70,66,93,75,45,29.95,29.92,29.89,10,9,6,10,6,,T,1,,84
2013-7-9,92,82,71,74,70,63,87,70,52,29.98,29.89,29.84,10,10,4,22,9,29,0.11,3,Rain-Thunderstorm,4
2013-7-10,82,73,63,67,60,55,93,68,42,30.10,30.05,29.98,10,10,9,16,5,20,0.00,0,,13
2013-7-11,87,73,59,64,60,55,90,66,42,30.09,30.02,29.93,10,10,10,21,10,25,0.00,0,,148
2013-7-12,91,78,65,70,65,59,84,63,46,29.96,29.91,29.85,10,10,10,24,15,32,0.00,0,,155
2013-7-13,92,82,71,72,67,61,75,63,46,29.95,29.90,29.88,10,10,10,20,12,25,T,0,,150
2013-7-14,87,77,67,67,63,57,78,60,42,30.15,30.04,29.95,10,10,10,20,9,24,T,2,,141
2013-7-15,89,75,60,69,65,59,90,69,48,30.20,30.15,30.10,10,10,9,15,6,21,0.00,2,,133
2013-7-16,90,78,66,68,66,63,93,69,44,30.23,30.19,30.15,10,10,7,16,7,22,0.00,0,,174
2013-7-17,93,81,68,70,68,66,93,70,47,30.27,30.21,30.13,10,10,8,18,8,22,0.00,0,,168
2013-7-18,93,81,69,70,68,66,90,67,44,30.12,30.00,29.86,10,10,10,25,12,31,0.00,0,,185
2013-7-19,93,79,64,69,62,54,81,55,29,29.93,29.88,29.82,10,10,10,21,8,28,0.00,0,,302
2013-7-20,84,70,56,65,61,54,93,71,48,29.98,29.92,29.86,10,10,10,20,4,25,T,1,Rain,221
2013-7-21,88,77,65,68,66,63,93,70,46,29.90,29.82,29.74,10,10,9,10,4,14,T,1,Rain,161
2013-7-22,94,80,65,72,66,60,93,67,41,29.86,29.77,29.73,10,10,6,21,9,25,T,1,Rain,59
2013-7-23,81,72,63,61,58,55,87,61,36,30.02,29.95,29.86,10,10,10,16,8,21,0.00,0,,46
2013-7-24,85,70,54,61,57,52,93,64,36,30.09,30.04,29.99,10,10,10,10,3,15,0.00,1,,97
2013-7-25,87,74,61,68,64,58,96,79,51,30.03,29.98,29.92,10,9,1,29,6,40,0.40,3,Rain-Thunderstorm,178
2013-7-26,75,67,58,64,56,49,97,69,35,30.14,30.07,29.97,10,10,10,24,12,30,0.00,3,,331
2013-7-27,73,60,47,51,47,44,93,61,28,30.15,30.10,30.03,10,10,10,18,7,25,0.00,1,,328
2013-7-28,77,61,44,51,47,44,97,63,26,30.09,30.06,30.02,10,10,10,9,4,13,0.00,0,,323
2013-7-29,67,59,50,61,55,47,89,77,67,30.09,30.06,30.03,10,10,10,16,6,21,0.01,7,,125
2013-7-30,75,68,60,65,63,60,100,84,68,30.09,30.07,30.05,10,8,2,8,2,10,0.00,7,,36
2013-7-31,87,72,57,66,61,57,100,72,44,30.14,30.10,30.04,10,6,0,13,4,16,0.00,1,Fog,333